sensor_id;sensor_type;location;lat;lon;timestamp;P1;durP1;ratioP1;P2;durP2;ratioP2
37001;SDS011;22913;51.910;8.374;2022-08-25T00:02:09;3.57;;;2.30;;
37001;SDS011;22913;51.910;8.374;2022-08-25T00:04:55;2.93;;;2.50;;
37001;SDS011;22913;51.910;8.374;2022-08-25T00:07:42;2.50;;;2.10;;
37001;SDS011;22913;51.910;8.374;2022-08-25T00:10:29;3.43;;;2.57;;
37001;SDS011;22913;51.910;8.374;2022-08-25T00:13:16;5.57;;;2.57;;
37001;SDS011;22913;51.910;8.374;2022-08-25T00:16:02;8.47;;;2.80;;
37001;SDS011;22913;51.910;8.374;2022-08-25T00:18:51;6.80;;;2.53;;
37001;SDS011;22913;51.910;8.374;2022-08-25T00:21:39;5.87;;;3.00;;
37001;SDS011;22913;51.910;8.374;2022-08-25T00:24:25;4.53;;;2.63;;
37001;SDS011;22913;51.910;8.374;2022-08-25T00:27:12;7.13;;;2.80;;
37001;SDS011;22913;51.910;8.374;2022-08-25T00:29:58;7.57;;;2.80;;
37001;SDS011;22913;51.910;8.374;2022-08-25T00:32:44;7.70;;;3.10;;
37001;SDS011;22913;51.910;8.374;2022-08-25T00:35:31;7.47;;;2.67;;
37001;SDS011;22913;51.910;8.374;2022-08-25T00:38:20;6.30;;;2.73;;
37001;SDS011;22913;51.910;8.374;2022-08-25T00:41:06;5.13;;;2.70;;
37001;SDS011;22913;51.910;8.374;2022-08-25T00:43:56;4.47;;;2.73;;
37001;SDS011;22913;51.910;8.374;2022-08-25T00:46:45;3.10;;;2.63;;
37001;SDS011;22913;51.910;8.374;2022-08-25T00:49:32;4.77;;;2.90;;
37001;SDS011;22913;51.910;8.374;2022-08-25T00:52:24;6.50;;;3.00;;
37001;SDS011;22913;51.910;8.374;2022-08-25T00:55:12;5.27;;;3.07;;
37001;SDS011;22913;51.910;8.374;2022-08-25T00:58:03;6.17;;;2.70;;
37001;SDS011;22913;51.910;8.374;2022-08-25T01:00:55;4.33;;;2.60;;
37001;SDS011;22913;51.910;8.374;2022-08-25T01:03:41;3.77;;;2.80;;
37001;SDS011;22913;51.910;8.374;2022-08-25T01:06:27;6.57;;;2.87;;
37001;SDS011;22913;51.910;8.374;2022-08-25T01:09:17;5.60;;;2.50;;
37001;SDS011;22913;51.910;8.374;2022-08-25T01:12:03;3.57;;;2.73;;
37001;SDS011;22913;51.910;8.374;2022-08-25T01:14:49;3.47;;;2.50;;
37001;SDS011;22913;51.910;8.374;2022-08-25T01:17:43;4.53;;;2.63;;
37001;SDS011;22913;51.910;8.374;2022-08-25T01:20:31;4.90;;;2.33;;
37001;SDS011;22913;51.910;8.374;2022-08-25T01:23:18;3.50;;;2.80;;
37001;SDS011;22913;51.910;8.374;2022-08-25T01:26:07;2.50;;;2.33;;
37001;SDS011;22913;51.910;8.374;2022-08-25T01:28:54;4.53;;;2.23;;
37001;SDS011;22913;51.910;8.374;2022-08-25T01:31:59;3.00;;;2.43;;
37001;SDS011;22913;51.910;8.374;2022-08-25T01:34:47;5.23;;;2.50;;
37001;SDS011;22913;51.910;8.374;2022-08-25T01:37:33;3.27;;;2.60;;
37001;SDS011;22913;51.910;8.374;2022-08-25T01:40:21;5.17;;;2.43;;
37001;SDS011;22913;51.910;8.374;2022-08-25T01:43:10;3.40;;;2.53;;
37001;SDS011;22913;51.910;8.374;2022-08-25T01:46:01;3.33;;;2.63;;
37001;SDS011;22913;51.910;8.374;2022-08-25T01:48:47;3.33;;;2.40;;
37001;SDS011;22913;51.910;8.374;2022-08-25T01:51:34;2.97;;;2.67;;
37001;SDS011;22913;51.910;8.374;2022-08-25T01:54:28;3.27;;;2.70;;
37001;SDS011;22913;51.910;8.374;2022-08-25T01:57:15;3.23;;;2.23;;
37001;SDS011;22913;51.910;8.374;2022-08-25T02:00:03;3.43;;;2.63;;
37001;SDS011;22913;51.910;8.374;2022-08-25T02:02:49;2.50;;;2.30;;
37001;SDS011;22913;51.910;8.374;2022-08-25T02:05:35;4.17;;;2.40;;
37001;SDS011;22913;51.910;8.374;2022-08-25T02:08:21;2.70;;;2.50;;
37001;SDS011;22913;51.910;8.374;2022-08-25T02:11:09;3.23;;;2.93;;
37001;SDS011;22913;51.910;8.374;2022-08-25T02:13:57;4.43;;;3.03;;
37001;SDS011;22913;51.910;8.374;2022-08-25T02:16:44;2.70;;;2.50;;
37001;SDS011;22913;51.910;8.374;2022-08-25T02:19:31;3.07;;;2.43;;
37001;SDS011;22913;51.910;8.374;2022-08-25T02:22:17;3.97;;;2.70;;
37001;SDS011;22913;51.910;8.374;2022-08-25T02:25:04;4.63;;;2.80;;
37001;SDS011;22913;51.910;8.374;2022-08-25T02:27:50;3.73;;;2.80;;
37001;SDS011;22913;51.910;8.374;2022-08-25T02:30:38;2.67;;;2.30;;
37001;SDS011;22913;51.910;8.374;2022-08-25T02:33:25;3.73;;;2.83;;
37001;SDS011;22913;51.910;8.374;2022-08-25T02:36:10;6.17;;;2.87;;
37001;SDS011;22913;51.910;8.374;2022-08-25T02:38:56;4.30;;;3.30;;
37001;SDS011;22913;51.910;8.374;2022-08-25T02:41:42;5.23;;;2.80;;
37001;SDS011;22913;51.910;8.374;2022-08-25T02:44:28;3.90;;;3.00;;
37001;SDS011;22913;51.910;8.374;2022-08-25T02:47:15;3.63;;;2.77;;
37001;SDS011;22913;51.910;8.374;2022-08-25T02:50:02;3.53;;;2.97;;
37001;SDS011;22913;51.910;8.374;2022-08-25T02:52:47;3.33;;;2.73;;
37001;SDS011;22913;51.910;8.374;2022-08-25T02:55:34;5.80;;;3.60;;
37001;SDS011;22913;51.910;8.374;2022-08-25T02:58:20;4.33;;;3.00;;
37001;SDS011;22913;51.910;8.374;2022-08-25T03:01:06;6.63;;;3.20;;
37001;SDS011;22913;51.910;8.374;2022-08-25T03:03:56;3.03;;;2.80;;
37001;SDS011;22913;51.910;8.374;2022-08-25T03:06:42;3.20;;;2.90;;
37001;SDS011;22913;51.910;8.374;2022-08-25T03:09:28;4.83;;;3.00;;
37001;SDS011;22913;51.910;8.374;2022-08-25T03:12:14;5.10;;;2.80;;
37001;SDS011;22913;51.910;8.374;2022-08-25T03:14:59;4.63;;;3.03;;
37001;SDS011;22913;51.910;8.374;2022-08-25T03:17:45;7.97;;;3.10;;
37001;SDS011;22913;51.910;8.374;2022-08-25T03:20:33;3.40;;;3.10;;
37001;SDS011;22913;51.910;8.374;2022-08-25T03:23:19;4.33;;;3.30;;
37001;SDS011;22913;51.910;8.374;2022-08-25T03:26:05;3.23;;;2.90;;
37001;SDS011;22913;51.910;8.374;2022-08-25T03:29:08;3.00;;;2.80;;
37001;SDS011;22913;51.910;8.374;2022-08-25T03:31:56;3.40;;;2.67;;
37001;SDS011;22913;51.910;8.374;2022-08-25T03:34:43;4.23;;;3.17;;
37001;SDS011;22913;51.910;8.374;2022-08-25T03:37:30;4.47;;;3.03;;
37001;SDS011;22913;51.910;8.374;2022-08-25T03:40:16;6.90;;;3.33;;
37001;SDS011;22913;51.910;8.374;2022-08-25T03:43:01;3.53;;;2.80;;
37001;SDS011;22913;51.910;8.374;2022-08-25T03:45:47;5.43;;;2.97;;
37001;SDS011;22913;51.910;8.374;2022-08-25T03:48:32;3.03;;;2.63;;
37001;SDS011;22913;51.910;8.374;2022-08-25T03:51:19;3.93;;;2.97;;
37001;SDS011;22913;51.910;8.374;2022-08-25T03:54:08;3.87;;;2.93;;
37001;SDS011;22913;51.910;8.374;2022-08-25T03:56:55;8.77;;;3.30;;
37001;SDS011;22913;51.910;8.374;2022-08-25T03:59:40;3.47;;;3.10;;
37001;SDS011;22913;51.910;8.374;2022-08-25T04:02:26;3.20;;;2.90;;
37001;SDS011;22913;51.910;8.374;2022-08-25T04:05:13;3.80;;;3.17;;
37001;SDS011;22913;51.910;8.374;2022-08-25T04:07:58;4.17;;;3.07;;
37001;SDS011;22913;51.910;8.374;2022-08-25T04:10:46;5.53;;;3.30;;
37001;SDS011;22913;51.910;8.374;2022-08-25T04:13:32;3.93;;;3.07;;
37001;SDS011;22913;51.910;8.374;2022-08-25T04:16:19;4.60;;;2.97;;
37001;SDS011;22913;51.910;8.374;2022-08-25T04:19:06;5.60;;;3.30;;
37001;SDS011;22913;51.910;8.374;2022-08-25T04:21:53;3.87;;;3.27;;
37001;SDS011;22913;51.910;8.374;2022-08-25T04:24:39;3.57;;;3.10;;
37001;SDS011;22913;51.910;8.374;2022-08-25T04:27:26;3.47;;;3.17;;
37001;SDS011;22913;51.910;8.374;2022-08-25T04:30:12;3.30;;;3.00;;
37001;SDS011;22913;51.910;8.374;2022-08-25T04:32:58;3.73;;;3.30;;
37001;SDS011;22913;51.910;8.374;2022-08-25T04:35:46;3.07;;;2.87;;
37001;SDS011;22913;51.910;8.374;2022-08-25T04:38:32;4.13;;;3.40;;
37001;SDS011;22913;51.910;8.374;2022-08-25T04:41:19;5.33;;;3.00;;
37001;SDS011;22913;51.910;8.374;2022-08-25T04:44:06;4.23;;;3.33;;
37001;SDS011;22913;51.910;8.374;2022-08-25T04:46:52;5.80;;;3.50;;
37001;SDS011;22913;51.910;8.374;2022-08-25T04:49:38;4.73;;;3.60;;
37001;SDS011;22913;51.910;8.374;2022-08-25T04:52:23;3.87;;;3.20;;
37001;SDS011;22913;51.910;8.374;2022-08-25T04:55:09;3.50;;;3.17;;
37001;SDS011;22913;51.910;8.374;2022-08-25T04:57:55;4.67;;;3.60;;
37001;SDS011;22913;51.910;8.374;2022-08-25T05:00:42;5.43;;;3.57;;
37001;SDS011;22913;51.910;8.374;2022-08-25T05:03:29;5.37;;;3.10;;
37001;SDS011;22913;51.910;8.374;2022-08-25T05:06:15;4.13;;;3.70;;
37001;SDS011;22913;51.910;8.374;2022-08-25T05:09:00;3.83;;;3.30;;
37001;SDS011;22913;51.910;8.374;2022-08-25T05:11:47;7.27;;;3.70;;
37001;SDS011;22913;51.910;8.374;2022-08-25T05:14:33;4.77;;;3.50;;
37001;SDS011;22913;51.910;8.374;2022-08-25T05:17:20;9.17;;;3.37;;
37001;SDS011;22913;51.910;8.374;2022-08-25T05:20:06;5.43;;;3.57;;
37001;SDS011;22913;51.910;8.374;2022-08-25T05:22:52;7.43;;;3.70;;
37001;SDS011;22913;51.910;8.374;2022-08-25T05:25:38;5.23;;;3.70;;
37001;SDS011;22913;51.910;8.374;2022-08-25T05:28:24;10.87;;;3.70;;
37001;SDS011;22913;51.910;8.374;2022-08-25T05:31:10;4.20;;;3.40;;
37001;SDS011;22913;51.910;8.374;2022-08-25T05:33:59;5.67;;;3.83;;
37001;SDS011;22913;51.910;8.374;2022-08-25T05:36:49;4.93;;;3.30;;
37001;SDS011;22913;51.910;8.374;2022-08-25T05:39:34;7.90;;;3.63;;
37001;SDS011;22913;51.910;8.374;2022-08-25T05:42:20;3.93;;;3.53;;
37001;SDS011;22913;51.910;8.374;2022-08-25T05:45:08;4.30;;;3.57;;
37001;SDS011;22913;51.910;8.374;2022-08-25T05:47:54;5.13;;;3.33;;
37001;SDS011;22913;51.910;8.374;2022-08-25T05:50:41;4.83;;;3.40;;
37001;SDS011;22913;51.910;8.374;2022-08-25T05:53:35;4.80;;;3.33;;
37001;SDS011;22913;51.910;8.374;2022-08-25T05:56:21;7.70;;;3.40;;
37001;SDS011;22913;51.910;8.374;2022-08-25T05:59:07;6.50;;;3.70;;
37001;SDS011;22913;51.910;8.374;2022-08-25T06:01:53;5.10;;;3.43;;
37001;SDS011;22913;51.910;8.374;2022-08-25T06:04:57;3.67;;;3.37;;
37001;SDS011;22913;51.910;8.374;2022-08-25T06:07:45;8.33;;;4.20;;
37001;SDS011;22913;51.910;8.374;2022-08-25T06:10:32;6.07;;;4.00;;
37001;SDS011;22913;51.910;8.374;2022-08-25T06:13:18;9.43;;;4.60;;
37001;SDS011;22913;51.910;8.374;2022-08-25T06:16:04;4.20;;;3.80;;
37001;SDS011;22913;51.910;8.374;2022-08-25T06:18:50;4.37;;;3.93;;
37001;SDS011;22913;51.910;8.374;2022-08-25T06:21:37;5.30;;;3.50;;
37001;SDS011;22913;51.910;8.374;2022-08-25T06:24:26;6.10;;;3.50;;
37001;SDS011;22913;51.910;8.374;2022-08-25T06:27:12;9.37;;;4.27;;
37001;SDS011;22913;51.910;8.374;2022-08-25T06:29:58;8.73;;;3.77;;
37001;SDS011;22913;51.910;8.374;2022-08-25T06:32:47;4.40;;;4.00;;
37001;SDS011;22913;51.910;8.374;2022-08-25T06:35:33;4.37;;;3.37;;
37001;SDS011;22913;51.910;8.374;2022-08-25T06:38:19;5.57;;;3.83;;
37001;SDS011;22913;51.910;8.374;2022-08-25T06:41:06;7.07;;;3.47;;
37001;SDS011;22913;51.910;8.374;2022-08-25T06:43:53;10.70;;;4.20;;
37001;SDS011;22913;51.910;8.374;2022-08-25T06:46:39;4.50;;;3.80;;
37001;SDS011;22913;51.910;8.374;2022-08-25T06:49:25;7.13;;;3.53;;
37001;SDS011;22913;51.910;8.374;2022-08-25T06:52:11;7.93;;;3.93;;
37001;SDS011;22913;51.910;8.374;2022-08-25T06:54:57;4.90;;;3.40;;
37001;SDS011;22913;51.910;8.374;2022-08-25T06:57:44;6.53;;;3.80;;
37001;SDS011;22913;51.910;8.374;2022-08-25T07:00:29;4.63;;;3.80;;
37001;SDS011;22913;51.910;8.374;2022-08-25T07:03:15;4.27;;;3.60;;
37001;SDS011;22913;51.910;8.374;2022-08-25T07:06:01;4.37;;;3.97;;
37001;SDS011;22913;51.910;8.374;2022-08-25T07:08:47;7.27;;;3.60;;
37001;SDS011;22913;51.910;8.374;2022-08-25T07:11:32;5.80;;;4.33;;
37001;SDS011;22913;51.910;8.374;2022-08-25T07:14:19;5.53;;;3.33;;
37001;SDS011;22913;51.910;8.374;2022-08-25T07:17:05;6.60;;;3.80;;
37001;SDS011;22913;51.910;8.374;2022-08-25T07:19:51;4.73;;;4.27;;
37001;SDS011;22913;51.910;8.374;2022-08-25T07:22:36;4.67;;;4.27;;
37001;SDS011;22913;51.910;8.374;2022-08-25T07:25:22;5.93;;;4.23;;
37001;SDS011;22913;51.910;8.374;2022-08-25T07:28:08;7.67;;;4.23;;
37001;SDS011;22913;51.910;8.374;2022-08-25T07:30:55;8.07;;;4.47;;
37001;SDS011;22913;51.910;8.374;2022-08-25T07:33:43;5.90;;;4.10;;
37001;SDS011;22913;51.910;8.374;2022-08-25T07:36:43;4.70;;;4.30;;
37001;SDS011;22913;51.910;8.374;2022-08-25T07:39:29;7.20;;;4.73;;
37001;SDS011;22913;51.910;8.374;2022-08-25T07:42:15;5.83;;;4.87;;
37001;SDS011;22913;51.910;8.374;2022-08-25T07:45:01;5.80;;;4.50;;
37001;SDS011;22913;51.910;8.374;2022-08-25T07:47:49;5.70;;;4.70;;
37001;SDS011;22913;51.910;8.374;2022-08-25T07:50:37;6.20;;;5.13;;
37001;SDS011;22913;51.910;8.374;2022-08-25T07:53:28;7.23;;;5.27;;
37001;SDS011;22913;51.910;8.374;2022-08-25T07:56:15;6.67;;;5.67;;
37001;SDS011;22913;51.910;8.374;2022-08-25T07:59:01;8.93;;;5.20;;
37001;SDS011;22913;51.910;8.374;2022-08-25T08:01:47;11.50;;;5.50;;
37001;SDS011;22913;51.910;8.374;2022-08-25T08:04:35;8.13;;;5.80;;
37001;SDS011;22913;51.910;8.374;2022-08-25T08:07:22;5.97;;;5.40;;
37001;SDS011;22913;51.910;8.374;2022-08-25T08:10:10;10.60;;;5.73;;
37001;SDS011;22913;51.910;8.374;2022-08-25T08:12:57;16.83;;;6.03;;
37001;SDS011;22913;51.910;8.374;2022-08-25T08:15:43;8.67;;;6.40;;
37001;SDS011;22913;51.910;8.374;2022-08-25T08:18:29;7.07;;;5.93;;
37001;SDS011;22913;51.910;8.374;2022-08-25T08:21:17;8.53;;;5.50;;
37001;SDS011;22913;51.910;8.374;2022-08-25T08:24:05;9.10;;;5.80;;
37001;SDS011;22913;51.910;8.374;2022-08-25T08:26:51;7.17;;;5.80;;
37001;SDS011;22913;51.910;8.374;2022-08-25T08:29:38;7.80;;;6.20;;
37001;SDS011;22913;51.910;8.374;2022-08-25T08:32:26;6.80;;;6.10;;
37001;SDS011;22913;51.910;8.374;2022-08-25T08:35:13;6.33;;;5.67;;
37001;SDS011;22913;51.910;8.374;2022-08-25T08:38:03;7.40;;;6.07;;
37001;SDS011;22913;51.910;8.374;2022-08-25T08:40:52;6.10;;;5.60;;
37001;SDS011;22913;51.910;8.374;2022-08-25T08:44:00;10.63;;;6.60;;
37001;SDS011;22913;51.910;8.374;2022-08-25T08:46:52;7.80;;;6.30;;
37001;SDS011;22913;51.910;8.374;2022-08-25T08:49:45;6.97;;;6.13;;
37001;SDS011;22913;51.910;8.374;2022-08-25T08:52:38;8.20;;;6.00;;
37001;SDS011;22913;51.910;8.374;2022-08-25T08:55:34;8.20;;;5.90;;
37001;SDS011;22913;51.910;8.374;2022-08-25T08:58:23;6.80;;;6.13;;
37001;SDS011;22913;51.910;8.374;2022-08-25T09:01:15;13.03;;;6.43;;
37001;SDS011;22913;51.910;8.374;2022-08-25T09:04:07;7.30;;;6.17;;
37001;SDS011;22913;51.910;8.374;2022-08-25T09:06:54;7.67;;;6.27;;
37001;SDS011;22913;51.910;8.374;2022-08-25T09:09:42;7.57;;;6.20;;
37001;SDS011;22913;51.910;8.374;2022-08-25T09:12:31;8.07;;;6.10;;
37001;SDS011;22913;51.910;8.374;2022-08-25T09:15:25;7.93;;;6.27;;
37001;SDS011;22913;51.910;8.374;2022-08-25T09:18:33;7.23;;;6.47;;
37001;SDS011;22913;51.910;8.374;2022-08-25T09:21:32;7.00;;;5.60;;
37001;SDS011;22913;51.910;8.374;2022-08-25T09:24:33;6.93;;;5.63;;
37001;SDS011;22913;51.910;8.374;2022-08-25T09:27:28;6.10;;;5.50;;
37001;SDS011;22913;51.910;8.374;2022-08-25T09:30:22;10.13;;;5.97;;
37001;SDS011;22913;51.910;8.374;2022-08-25T09:33:07;6.87;;;6.20;;
37001;SDS011;22913;51.910;8.374;2022-08-25T09:35:56;9.37;;;6.63;;
37001;SDS011;22913;51.910;8.374;2022-08-25T09:38:41;7.50;;;6.10;;
37001;SDS011;22913;51.910;8.374;2022-08-25T09:41:34;6.93;;;6.13;;
37001;SDS011;22913;51.910;8.374;2022-08-25T09:44:31;6.07;;;5.47;;
37001;SDS011;22913;51.910;8.374;2022-08-25T09:47:20;9.53;;;6.50;;
37001;SDS011;22913;51.910;8.374;2022-08-25T09:50:07;7.13;;;5.57;;
37001;SDS011;22913;51.910;8.374;2022-08-25T09:53:09;7.93;;;5.70;;
37001;SDS011;22913;51.910;8.374;2022-08-25T09:55:59;6.73;;;6.10;;
37001;SDS011;22913;51.910;8.374;2022-08-25T09:58:49;6.17;;;5.60;;
37001;SDS011;22913;51.910;8.374;2022-08-25T10:01:36;8.17;;;6.27;;
37001;SDS011;22913;51.910;8.374;2022-08-25T10:04:33;6.50;;;5.77;;
37001;SDS011;22913;51.910;8.374;2022-08-25T10:07:21;8.40;;;5.63;;
37001;SDS011;22913;51.910;8.374;2022-08-25T10:10:15;7.87;;;6.03;;
37001;SDS011;22913;51.910;8.374;2022-08-25T10:13:03;6.90;;;5.37;;
37001;SDS011;22913;51.910;8.374;2022-08-25T10:16:01;6.37;;;5.40;;
37001;SDS011;22913;51.910;8.374;2022-08-25T10:19:00;5.80;;;5.40;;
37001;SDS011;22913;51.910;8.374;2022-08-25T10:22:00;6.27;;;5.67;;
37001;SDS011;22913;51.910;8.374;2022-08-25T10:24:48;6.83;;;5.43;;
37001;SDS011;22913;51.910;8.374;2022-08-25T10:27:35;6.50;;;5.80;;
37001;SDS011;22913;51.910;8.374;2022-08-25T10:30:27;7.37;;;5.63;;
37001;SDS011;22913;51.910;8.374;2022-08-25T10:33:20;11.97;;;6.10;;
37001;SDS011;22913;51.910;8.374;2022-08-25T10:36:16;6.53;;;5.60;;
37001;SDS011;22913;51.910;8.374;2022-08-25T10:39:05;6.53;;;6.00;;
37001;SDS011;22913;51.910;8.374;2022-08-25T10:41:56;6.43;;;5.40;;
37001;SDS011;22913;51.910;8.374;2022-08-25T10:44:50;9.10;;;5.97;;
37001;SDS011;22913;51.910;8.374;2022-08-25T10:48:06;6.13;;;5.63;;
37001;SDS011;22913;51.910;8.374;2022-08-25T10:51:16;8.27;;;5.90;;
37001;SDS011;22913;51.910;8.374;2022-08-25T10:54:24;8.33;;;6.30;;
37001;SDS011;22913;51.910;8.374;2022-08-25T10:57:17;5.97;;;5.53;;
37001;SDS011;22913;51.910;8.374;2022-08-25T11:00:07;8.87;;;5.90;;
37001;SDS011;22913;51.910;8.374;2022-08-25T11:06:16;7.17;;;5.67;;
37001;SDS011;22913;51.910;8.374;2022-08-25T11:09:08;6.13;;;5.53;;
37001;SDS011;22913;51.910;8.374;2022-08-25T11:11:58;8.03;;;5.57;;
37001;SDS011;22913;51.910;8.374;2022-08-25T11:14:47;7.13;;;5.67;;
37001;SDS011;22913;51.910;8.374;2022-08-25T11:17:38;7.53;;;5.53;;
37001;SDS011;22913;51.910;8.374;2022-08-25T11:20:31;11.97;;;5.73;;
37001;SDS011;22913;51.910;8.374;2022-08-25T11:23:22;6.23;;;5.40;;
37001;SDS011;22913;51.910;8.374;2022-08-25T11:26:12;6.03;;;5.47;;
37001;SDS011;22913;51.910;8.374;2022-08-25T11:29:02;8.33;;;5.00;;
37001;SDS011;22913;51.910;8.374;2022-08-25T11:31:53;6.80;;;5.53;;
37001;SDS011;22913;51.910;8.374;2022-08-25T11:34:39;9.33;;;5.10;;
37001;SDS011;22913;51.910;8.374;2022-08-25T11:37:26;10.00;;;5.23;;
37001;SDS011;22913;51.910;8.374;2022-08-25T11:40:17;6.70;;;5.07;;
37001;SDS011;22913;51.910;8.374;2022-08-25T11:43:20;8.93;;;4.70;;
37001;SDS011;22913;51.910;8.374;2022-08-25T11:49:29;5.87;;;4.70;;
37001;SDS011;22913;51.910;8.374;2022-08-25T11:52:45;6.53;;;4.47;;
37001;SDS011;22913;51.910;8.374;2022-08-25T11:55:45;5.40;;;4.43;;
37001;SDS011;22913;51.910;8.374;2022-08-25T11:58:39;8.97;;;4.93;;
37001;SDS011;22913;51.910;8.374;2022-08-25T12:04:44;5.50;;;5.00;;
37001;SDS011;22913;51.910;8.374;2022-08-25T12:07:30;4.72;;;4.32;;
37001;SDS011;22913;51.910;8.374;2022-08-25T12:10:58;5.38;;;4.45;;
37001;SDS011;22913;51.910;8.374;2022-08-25T12:13:47;5.07;;;4.60;;
37001;SDS011;22913;51.910;8.374;2022-08-25T12:16:40;5.38;;;4.38;;
37001;SDS011;22913;51.910;8.374;2022-08-25T12:19:30;7.85;;;4.53;;
37001;SDS011;22913;51.910;8.374;2022-08-25T12:22:53;5.95;;;4.63;;
37001;SDS011;22913;51.910;8.374;2022-08-25T12:25:48;5.57;;;4.53;;
37001;SDS011;22913;51.910;8.374;2022-08-25T12:28:39;7.15;;;5.38;;
37001;SDS011;22913;51.910;8.374;2022-08-25T12:31:38;6.57;;;4.57;;
37001;SDS011;22913;51.910;8.374;2022-08-25T12:34:52;8.80;;;5.10;;
37001;SDS011;22913;51.910;8.374;2022-08-25T12:37:59;7.22;;;4.80;;
37001;SDS011;22913;51.910;8.374;2022-08-25T12:40:55;6.95;;;5.07;;
37001;SDS011;22913;51.910;8.374;2022-08-25T12:43:46;9.18;;;4.57;;
37001;SDS011;22913;51.910;8.374;2022-08-25T12:46:36;8.38;;;4.90;;
37001;SDS011;22913;51.910;8.374;2022-08-25T12:49:29;6.32;;;4.60;;
37001;SDS011;22913;51.910;8.374;2022-08-25T12:52:17;9.50;;;4.50;;
37001;SDS011;22913;51.910;8.374;2022-08-25T12:55:19;6.80;;;5.07;;
37001;SDS011;22913;51.910;8.374;2022-08-25T12:58:13;9.98;;;5.20;;
37001;SDS011;22913;51.910;8.374;2022-08-25T13:01:07;5.82;;;5.25;;
37001;SDS011;22913;51.910;8.374;2022-08-25T13:04:13;5.35;;;4.70;;
37001;SDS011;22913;51.910;8.374;2022-08-25T13:07:17;4.55;;;4.15;;
37001;SDS011;22913;51.910;8.374;2022-08-25T13:10:17;7.68;;;4.25;;
37001;SDS011;22913;51.910;8.374;2022-08-25T13:13:15;5.85;;;4.53;;
37001;SDS011;22913;51.910;8.374;2022-08-25T13:19:24;5.15;;;4.20;;
37001;SDS011;22913;51.910;8.374;2022-08-25T13:22:11;5.70;;;4.60;;
37001;SDS011;22913;51.910;8.374;2022-08-25T13:25:00;4.65;;;4.32;;
37001;SDS011;22913;51.910;8.374;2022-08-25T13:27:48;5.45;;;4.20;;
37001;SDS011;22913;51.910;8.374;2022-08-25T13:30:35;8.05;;;4.97;;
37001;SDS011;22913;51.910;8.374;2022-08-25T13:33:22;5.72;;;4.43;;
37001;SDS011;22913;51.910;8.374;2022-08-25T13:36:14;4.90;;;4.50;;
37001;SDS011;22913;51.910;8.374;2022-08-25T13:39:19;7.13;;;4.78;;
37001;SDS011;22913;51.910;8.374;2022-08-25T13:42:10;9.63;;;4.82;;
37001;SDS011;22913;51.910;8.374;2022-08-25T13:44:58;7.03;;;5.25;;
37001;SDS011;22913;51.910;8.374;2022-08-25T13:47:44;5.30;;;4.88;;
37001;SDS011;22913;51.910;8.374;2022-08-25T13:50:32;11.80;;;5.35;;
37001;SDS011;22913;51.910;8.374;2022-08-25T13:53:22;5.97;;;4.68;;
37001;SDS011;22913;51.910;8.374;2022-08-25T13:56:09;7.10;;;5.05;;
37001;SDS011;22913;51.910;8.374;2022-08-25T13:58:58;5.78;;;5.28;;
37001;SDS011;22913;51.910;8.374;2022-08-25T14:01:45;5.38;;;4.80;;
37001;SDS011;22913;51.910;8.374;2022-08-25T14:04:43;5.35;;;4.55;;
37001;SDS011;22913;51.910;8.374;2022-08-25T14:07:32;5.75;;;4.80;;
37001;SDS011;22913;51.910;8.374;2022-08-25T14:10:31;7.45;;;4.63;;
37001;SDS011;22913;51.910;8.374;2022-08-25T14:13:28;5.40;;;4.90;;
37001;SDS011;22913;51.910;8.374;2022-08-25T14:16:17;5.88;;;5.22;;
37001;SDS011;22913;51.910;8.374;2022-08-25T14:19:07;8.95;;;4.93;;
37001;SDS011;22913;51.910;8.374;2022-08-25T14:21:57;4.88;;;4.40;;
37001;SDS011;22913;51.910;8.374;2022-08-25T14:24:44;6.25;;;4.65;;
37001;SDS011;22913;51.910;8.374;2022-08-25T14:27:31;5.97;;;4.75;;
37001;SDS011;22913;51.910;8.374;2022-08-25T14:30:17;5.10;;;4.60;;
37001;SDS011;22913;51.910;8.374;2022-08-25T14:33:03;4.97;;;4.50;;
37001;SDS011;22913;51.910;8.374;2022-08-25T14:35:50;4.72;;;4.25;;
37001;SDS011;22913;51.910;8.374;2022-08-25T14:38:37;7.00;;;5.05;;
37001;SDS011;22913;51.910;8.374;2022-08-25T14:41:24;6.25;;;4.70;;
37001;SDS011;22913;51.910;8.374;2022-08-25T14:44:12;6.50;;;4.68;;
37001;SDS011;22913;51.910;8.374;2022-08-25T14:46:58;4.90;;;4.60;;
37001;SDS011;22913;51.910;8.374;2022-08-25T14:49:45;5.80;;;5.07;;
37001;SDS011;22913;51.910;8.374;2022-08-25T14:52:32;5.30;;;4.80;;
37001;SDS011;22913;51.910;8.374;2022-08-25T14:55:18;7.95;;;5.32;;
37001;SDS011;22913;51.910;8.374;2022-08-25T14:58:04;6.18;;;4.63;;
37001;SDS011;22913;51.910;8.374;2022-08-25T15:00:51;6.15;;;4.80;;
37001;SDS011;22913;51.910;8.374;2022-08-25T15:03:38;6.07;;;4.88;;
37001;SDS011;22913;51.910;8.374;2022-08-25T15:06:26;5.18;;;4.75;;
37001;SDS011;22913;51.910;8.374;2022-08-25T15:09:14;5.97;;;4.95;;
37001;SDS011;22913;51.910;8.374;2022-08-25T15:12:00;5.57;;;4.85;;
37001;SDS011;22913;51.910;8.374;2022-08-25T15:14:47;5.05;;;4.15;;
37001;SDS011;22913;51.910;8.374;2022-08-25T15:17:34;5.18;;;4.68;;
37001;SDS011;22913;51.910;8.374;2022-08-25T15:20:21;4.78;;;4.40;;
37001;SDS011;22913;51.910;8.374;2022-08-25T15:23:07;5.50;;;4.45;;
37001;SDS011;22913;51.910;8.374;2022-08-25T15:25:53;5.53;;;5.03;;
37001;SDS011;22913;51.910;8.374;2022-08-25T15:28:44;7.90;;;4.75;;
37001;SDS011;22913;51.910;8.374;2022-08-25T15:31:31;6.72;;;4.35;;
37001;SDS011;22913;51.910;8.374;2022-08-25T15:34:19;6.25;;;4.43;;
37001;SDS011;22913;51.910;8.374;2022-08-25T15:37:06;6.57;;;4.55;;
37001;SDS011;22913;51.910;8.374;2022-08-25T15:39:53;4.60;;;4.20;;
37001;SDS011;22913;51.910;8.374;2022-08-25T15:42:39;5.90;;;4.57;;
37001;SDS011;22913;51.910;8.374;2022-08-25T15:45:24;6.90;;;4.90;;
37001;SDS011;22913;51.910;8.374;2022-08-25T15:48:10;6.28;;;4.20;;
37001;SDS011;22913;51.910;8.374;2022-08-25T15:50:57;3.72;;;3.30;;
37001;SDS011;22913;51.910;8.374;2022-08-25T15:53:43;5.07;;;4.28;;
37001;SDS011;22913;51.910;8.374;2022-08-25T15:56:29;7.35;;;4.40;;
37001;SDS011;22913;51.910;8.374;2022-08-25T15:59:15;7.22;;;4.43;;
37001;SDS011;22913;51.910;8.374;2022-08-25T16:02:01;5.60;;;4.25;;
37001;SDS011;22913;51.910;8.374;2022-08-25T16:04:47;6.05;;;4.28;;
37001;SDS011;22913;51.910;8.374;2022-08-25T16:07:35;5.25;;;4.78;;
37001;SDS011;22913;51.910;8.374;2022-08-25T16:10:21;5.38;;;4.47;;
37001;SDS011;22913;51.910;8.374;2022-08-25T16:13:07;4.72;;;4.25;;
37001;SDS011;22913;51.910;8.374;2022-08-25T16:15:54;5.63;;;4.40;;
37001;SDS011;22913;51.910;8.374;2022-08-25T16:18:39;5.95;;;4.28;;
37001;SDS011;22913;51.910;8.374;2022-08-25T16:21:27;4.88;;;4.45;;
37001;SDS011;22913;51.910;8.374;2022-08-25T16:24:16;7.60;;;4.78;;
37001;SDS011;22913;51.910;8.374;2022-08-25T16:27:03;5.65;;;4.50;;
37001;SDS011;22913;51.910;8.374;2022-08-25T16:29:49;7.03;;;4.68;;
37001;SDS011;22913;51.910;8.374;2022-08-25T16:32:34;5.32;;;4.78;;
37001;SDS011;22913;51.910;8.374;2022-08-25T16:35:20;5.78;;;4.82;;
37001;SDS011;22913;51.910;8.374;2022-08-25T16:38:06;9.98;;;4.85;;
37001;SDS011;22913;51.910;8.374;2022-08-25T16:40:53;5.35;;;4.63;;
37001;SDS011;22913;51.910;8.374;2022-08-25T16:43:38;5.03;;;4.55;;
37001;SDS011;22913;51.910;8.374;2022-08-25T16:46:24;5.43;;;4.55;;
37001;SDS011;22913;51.910;8.374;2022-08-25T16:49:10;5.82;;;4.60;;
37001;SDS011;22913;51.910;8.374;2022-08-25T16:51:57;5.05;;;4.57;;
37001;SDS011;22913;51.910;8.374;2022-08-25T16:54:44;4.75;;;4.22;;
37001;SDS011;22913;51.910;8.374;2022-08-25T16:57:50;4.80;;;4.43;;
37001;SDS011;22913;51.910;8.374;2022-08-25T17:00:37;6.38;;;4.80;;
37001;SDS011;22913;51.910;8.374;2022-08-25T17:03:23;7.00;;;4.28;;
37001;SDS011;22913;51.910;8.374;2022-08-25T17:06:09;6.78;;;4.38;;
37001;SDS011;22913;51.910;8.374;2022-08-25T17:08:56;4.88;;;4.32;;
37001;SDS011;22913;51.910;8.374;2022-08-25T17:11:43;5.32;;;4.65;;
37001;SDS011;22913;51.910;8.374;2022-08-25T17:14:32;5.07;;;4.45;;